sensor_id;sensor_type;location;lat;lon;timestamp;P1;durP1;ratioP1;P2;durP2;ratioP2
27670;SDS011;15077;49.704;9.908;2023-07-02T00:01:50;2.83;;;1.85;;
27670;SDS011;15077;49.704;9.908;2023-07-02T00:04:16;2.75;;;1.92;;
27670;SDS011;15077;49.704;9.908;2023-07-02T00:06:45;3.30;;;2.00;;
27670;SDS011;15077;49.704;9.908;2023-07-02T00:09:12;3.53;;;2.40;;
27670;SDS011;15077;49.704;9.908;2023-07-02T00:11:43;3.47;;;2.47;;
27670;SDS011;15077;49.704;9.908;2023-07-02T00:14:12;4.57;;;1.98;;
27670;SDS011;15077;49.704;9.908;2023-07-02T00:16:45;2.80;;;2.15;;
27670;SDS011;15077;49.704;9.908;2023-07-02T00:19:13;3.83;;;2.58;;
27670;SDS011;15077;49.704;9.908;2023-07-02T00:21:41;2.75;;;1.85;;
27670;SDS011;15077;49.704;9.908;2023-07-02T00:24:08;3.55;;;2.47;;
27670;SDS011;15077;49.704;9.908;2023-07-02T00:26:35;2.80;;;2.25;;
27670;SDS011;15077;49.704;9.908;2023-07-02T00:29:03;4.10;;;2.63;;
27670;SDS011;15077;49.704;9.908;2023-07-02T00:31:32;3.25;;;2.40;;
27670;SDS011;15077;49.704;9.908;2023-07-02T00:33:58;2.33;;;2.08;;
27670;SDS011;15077;49.704;9.908;2023-07-02T00:36:26;3.47;;;2.80;;
27670;SDS011;15077;49.704;9.908;2023-07-02T00:38:53;2.05;;;1.85;;
27670;SDS011;15077;49.704;9.908;2023-07-02T00:41:19;2.58;;;2.10;;
27670;SDS011;15077;49.704;9.908;2023-07-02T00:43:45;3.60;;;2.17;;
27670;SDS011;15077;49.704;9.908;2023-07-02T00:46:12;3.65;;;1.80;;
27670;SDS011;15077;49.704;9.908;2023-07-02T00:48:45;3.45;;;1.60;;
27670;SDS011;15077;49.704;9.908;2023-07-02T00:51:17;2.67;;;1.80;;
27670;SDS011;15077;49.704;9.908;2023-07-02T00:53:52;2.30;;;1.77;;
27670;SDS011;15077;49.704;9.908;2023-07-02T00:56:20;2.30;;;1.85;;
27670;SDS011;15077;49.704;9.908;2023-07-02T00:58:48;3.72;;;2.28;;
27670;SDS011;15077;49.704;9.908;2023-07-02T01:01:19;2.17;;;1.98;;
27670;SDS011;15077;49.704;9.908;2023-07-02T01:04:00;3.03;;;2.30;;
27670;SDS011;15077;49.704;9.908;2023-07-02T01:06:33;3.33;;;2.00;;
27670;SDS011;15077;49.704;9.908;2023-07-02T01:09:06;2.70;;;2.10;;
27670;SDS011;15077;49.704;9.908;2023-07-02T01:11:45;3.83;;;2.38;;
27670;SDS011;15077;49.704;9.908;2023-07-02T01:16:52;2.30;;;1.75;;
27670;SDS011;15077;49.704;9.908;2023-07-02T01:22:11;2.88;;;1.85;;
27670;SDS011;15077;49.704;9.908;2023-07-02T01:24:38;4.97;;;1.77;;
27670;SDS011;15077;49.704;9.908;2023-07-02T01:27:05;2.72;;;2.05;;
27670;SDS011;15077;49.704;9.908;2023-07-02T01:29:32;2.45;;;1.70;;
27670;SDS011;15077;49.704;9.908;2023-07-02T01:32:01;2.00;;;1.75;;
27670;SDS011;15077;49.704;9.908;2023-07-02T01:34:28;1.88;;;1.60;;
27670;SDS011;15077;49.704;9.908;2023-07-02T01:36:54;1.80;;;1.23;;
27670;SDS011;15077;49.704;9.908;2023-07-02T01:39:22;2.03;;;1.52;;
27670;SDS011;15077;49.704;9.908;2023-07-02T01:44:17;2.25;;;1.70;;
27670;SDS011;15077;49.704;9.908;2023-07-02T01:46:44;2.75;;;1.90;;
27670;SDS011;15077;49.704;9.908;2023-07-02T01:49:17;2.22;;;1.70;;
27670;SDS011;15077;49.704;9.908;2023-07-02T01:51:45;2.83;;;1.77;;
27670;SDS011;15077;49.704;9.908;2023-07-02T01:54:20;2.47;;;1.50;;
27670;SDS011;15077;49.704;9.908;2023-07-02T01:56:49;1.90;;;1.33;;
27670;SDS011;15077;49.704;9.908;2023-07-02T01:59:17;2.80;;;1.67;;
27670;SDS011;15077;49.704;9.908;2023-07-02T02:01:45;2.13;;;1.65;;
27670;SDS011;15077;49.704;9.908;2023-07-02T02:04:13;2.60;;;1.70;;
27670;SDS011;15077;49.704;9.908;2023-07-02T02:06:44;2.58;;;1.67;;
27670;SDS011;15077;49.704;9.908;2023-07-02T02:09:10;2.03;;;1.58;;
27670;SDS011;15077;49.704;9.908;2023-07-02T02:11:47;2.40;;;1.42;;
27670;SDS011;15077;49.704;9.908;2023-07-02T02:14:15;2.88;;;1.80;;
27670;SDS011;15077;49.704;9.908;2023-07-02T02:16:44;2.13;;;1.35;;
27670;SDS011;15077;49.704;9.908;2023-07-02T02:19:12;1.65;;;1.25;;
27670;SDS011;15077;49.704;9.908;2023-07-02T02:21:40;2.65;;;1.67;;
27670;SDS011;15077;49.704;9.908;2023-07-02T02:24:07;3.05;;;1.83;;
27670;SDS011;15077;49.704;9.908;2023-07-02T02:26:34;3.25;;;1.75;;
27670;SDS011;15077;49.704;9.908;2023-07-02T02:29:01;2.25;;;1.48;;
27670;SDS011;15077;49.704;9.908;2023-07-02T02:31:28;1.95;;;1.58;;
27670;SDS011;15077;49.704;9.908;2023-07-02T02:33:56;3.72;;;1.98;;
27670;SDS011;15077;49.704;9.908;2023-07-02T02:36:24;2.67;;;2.08;;
27670;SDS011;15077;49.704;9.908;2023-07-02T02:38:55;1.92;;;1.55;;
27670;SDS011;15077;49.704;9.908;2023-07-02T02:41:23;2.50;;;2.00;;
27670;SDS011;15077;49.704;9.908;2023-07-02T02:43:51;2.13;;;1.40;;
27670;SDS011;15077;49.704;9.908;2023-07-02T02:46:20;1.60;;;1.42;;
27670;SDS011;15077;49.704;9.908;2023-07-02T02:48:48;2.55;;;1.33;;
27670;SDS011;15077;49.704;9.908;2023-07-02T02:51:14;2.97;;;1.38;;
27670;SDS011;15077;49.704;9.908;2023-07-02T02:53:40;3.17;;;1.90;;
27670;SDS011;15077;49.704;9.908;2023-07-02T02:56:06;2.38;;;1.30;;
27670;SDS011;15077;49.704;9.908;2023-07-02T02:58:32;2.78;;;1.27;;
27670;SDS011;15077;49.704;9.908;2023-07-02T03:00:57;1.52;;;1.10;;
27670;SDS011;15077;49.704;9.908;2023-07-02T03:03:24;2.45;;;1.08;;
27670;SDS011;15077;49.704;9.908;2023-07-02T03:05:51;2.45;;;1.60;;
27670;SDS011;15077;49.704;9.908;2023-07-02T03:08:17;2.38;;;1.33;;
27670;SDS011;15077;49.704;9.908;2023-07-02T03:10:44;2.78;;;1.60;;
27670;SDS011;15077;49.704;9.908;2023-07-02T03:13:12;1.55;;;1.15;;
27670;SDS011;15077;49.704;9.908;2023-07-02T03:15:43;2.35;;;1.45;;
27670;SDS011;15077;49.704;9.908;2023-07-02T03:18:11;1.65;;;1.20;;
27670;SDS011;15077;49.704;9.908;2023-07-02T03:20:39;3.65;;;1.48;;
27670;SDS011;15077;49.704;9.908;2023-07-02T03:23:06;4.25;;;1.70;;
27670;SDS011;15077;49.704;9.908;2023-07-02T03:25:32;2.33;;;1.38;;
27670;SDS011;15077;49.704;9.908;2023-07-02T03:27:58;2.55;;;1.20;;
27670;SDS011;15077;49.704;9.908;2023-07-02T03:30:23;1.75;;;1.08;;
27670;SDS011;15077;49.704;9.908;2023-07-02T03:32:50;2.05;;;1.33;;
27670;SDS011;15077;49.704;9.908;2023-07-02T03:35:21;1.58;;;1.10;;
27670;SDS011;15077;49.704;9.908;2023-07-02T03:37:47;1.20;;;0.80;;
27670;SDS011;15077;49.704;9.908;2023-07-02T03:40:12;1.80;;;1.15;;
27670;SDS011;15077;49.704;9.908;2023-07-02T03:42:38;1.90;;;0.95;;
27670;SDS011;15077;49.704;9.908;2023-07-02T03:45:04;3.03;;;1.00;;
27670;SDS011;15077;49.704;9.908;2023-07-02T03:47:30;1.83;;;1.13;;
27670;SDS011;15077;49.704;9.908;2023-07-02T03:49:56;1.45;;;0.82;;
27670;SDS011;15077;49.704;9.908;2023-07-02T03:52:23;1.58;;;1.00;;
27670;SDS011;15077;49.704;9.908;2023-07-02T03:54:50;1.73;;;1.10;;
27670;SDS011;15077;49.704;9.908;2023-07-02T03:57:16;2.88;;;1.48;;
27670;SDS011;15077;49.704;9.908;2023-07-02T03:59:42;3.25;;;2.20;;
27670;SDS011;15077;49.704;9.908;2023-07-02T04:02:08;2.20;;;1.52;;
27670;SDS011;15077;49.704;9.908;2023-07-02T04:04:34;3.65;;;1.65;;
27670;SDS011;15077;49.704;9.908;2023-07-02T04:07:00;3.53;;;1.50;;
27670;SDS011;15077;49.704;9.908;2023-07-02T04:09:26;3.38;;;1.75;;
27670;SDS011;15077;49.704;9.908;2023-07-02T04:11:52;1.55;;;1.27;;
27670;SDS011;15077;49.704;9.908;2023-07-02T04:14:17;2.15;;;1.33;;
27670;SDS011;15077;49.704;9.908;2023-07-02T04:16:43;2.67;;;1.70;;
27670;SDS011;15077;49.704;9.908;2023-07-02T04:19:10;8.30;;;1.50;;
27670;SDS011;15077;49.704;9.908;2023-07-02T04:21:35;3.50;;;1.70;;
27670;SDS011;15077;49.704;9.908;2023-07-02T04:24:01;4.75;;;1.70;;
27670;SDS011;15077;49.704;9.908;2023-07-02T04:26:27;4.43;;;2.50;;
27670;SDS011;15077;49.704;9.908;2023-07-02T04:28:54;3.60;;;1.77;;
27670;SDS011;15077;49.704;9.908;2023-07-02T04:31:20;5.97;;;2.17;;
27670;SDS011;15077;49.704;9.908;2023-07-02T04:33:46;3.25;;;1.90;;
27670;SDS011;15077;49.704;9.908;2023-07-02T04:36:12;4.72;;;2.20;;
27670;SDS011;15077;49.704;9.908;2023-07-02T04:38:38;5.85;;;2.45;;
27670;SDS011;15077;49.704;9.908;2023-07-02T04:41:04;4.40;;;2.05;;
27670;SDS011;15077;49.704;9.908;2023-07-02T04:43:31;4.88;;;2.47;;
27670;SDS011;15077;49.704;9.908;2023-07-02T04:45:58;4.50;;;2.38;;
27670;SDS011;15077;49.704;9.908;2023-07-02T04:48:24;3.95;;;1.80;;
27670;SDS011;15077;49.704;9.908;2023-07-02T04:50:50;4.15;;;1.98;;
27670;SDS011;15077;49.704;9.908;2023-07-02T04:53:16;2.75;;;1.77;;
27670;SDS011;15077;49.704;9.908;2023-07-02T04:55:42;2.72;;;1.80;;
27670;SDS011;15077;49.704;9.908;2023-07-02T04:58:08;4.43;;;2.08;;
27670;SDS011;15077;49.704;9.908;2023-07-02T05:00:34;3.70;;;1.70;;
27670;SDS011;15077;49.704;9.908;2023-07-02T05:03:00;2.65;;;1.73;;
27670;SDS011;15077;49.704;9.908;2023-07-02T05:05:26;3.13;;;2.13;;
27670;SDS011;15077;49.704;9.908;2023-07-02T05:07:51;5.20;;;2.72;;
27670;SDS011;15077;49.704;9.908;2023-07-02T05:10:19;4.05;;;2.92;;
27670;SDS011;15077;49.704;9.908;2023-07-02T05:12:44;5.80;;;3.45;;
27670;SDS011;15077;49.704;9.908;2023-07-02T05:15:10;7.43;;;3.70;;
27670;SDS011;15077;49.704;9.908;2023-07-02T05:17:37;6.55;;;4.53;;
27670;SDS011;15077;49.704;9.908;2023-07-02T05:20:03;8.55;;;4.38;;
27670;SDS011;15077;49.704;9.908;2023-07-02T05:22:30;9.35;;;4.78;;
27670;SDS011;15077;49.704;9.908;2023-07-02T05:24:56;6.00;;;4.28;;
27670;SDS011;15077;49.704;9.908;2023-07-02T05:27:22;6.40;;;4.45;;
27670;SDS011;15077;49.704;9.908;2023-07-02T05:29:47;8.27;;;4.38;;
27670;SDS011;15077;49.704;9.908;2023-07-02T05:32:13;6.30;;;3.72;;
27670;SDS011;15077;49.704;9.908;2023-07-02T05:34:39;5.35;;;3.83;;
27670;SDS011;15077;49.704;9.908;2023-07-02T05:37:05;5.70;;;3.58;;
27670;SDS011;15077;49.704;9.908;2023-07-02T05:39:31;8.70;;;3.50;;
27670;SDS011;15077;49.704;9.908;2023-07-02T05:41:58;7.28;;;4.28;;
27670;SDS011;15077;49.704;9.908;2023-07-02T05:44:24;6.75;;;4.30;;
27670;SDS011;15077;49.704;9.908;2023-07-02T05:46:50;5.13;;;3.53;;
27670;SDS011;15077;49.704;9.908;2023-07-02T05:49:16;6.53;;;3.67;;
27670;SDS011;15077;49.704;9.908;2023-07-02T05:51:41;6.13;;;4.70;;
27670;SDS011;15077;49.704;9.908;2023-07-02T05:54:07;8.15;;;4.72;;
27670;SDS011;15077;49.704;9.908;2023-07-02T05:56:33;7.80;;;4.43;;
27670;SDS011;15077;49.704;9.908;2023-07-02T05:58:59;6.85;;;4.18;;
27670;SDS011;15077;49.704;9.908;2023-07-02T06:01:24;8.05;;;4.50;;
27670;SDS011;15077;49.704;9.908;2023-07-02T06:03:50;11.23;;;5.22;;
27670;SDS011;15077;49.704;9.908;2023-07-02T06:06:16;8.07;;;5.30;;
27670;SDS011;15077;49.704;9.908;2023-07-02T06:08:42;6.32;;;4.68;;
27670;SDS011;15077;49.704;9.908;2023-07-02T06:11:09;8.02;;;4.35;;
27670;SDS011;15077;49.704;9.908;2023-07-02T06:13:35;9.73;;;5.15;;
27670;SDS011;15077;49.704;9.908;2023-07-02T06:16:01;10.23;;;4.80;;
27670;SDS011;15077;49.704;9.908;2023-07-02T06:18:27;9.10;;;5.85;;
27670;SDS011;15077;49.704;9.908;2023-07-02T06:20:53;7.22;;;4.63;;
27670;SDS011;15077;49.704;9.908;2023-07-02T06:23:18;7.95;;;5.63;;
27670;SDS011;15077;49.704;9.908;2023-07-02T06:25:44;9.95;;;5.60;;
27670;SDS011;15077;49.704;9.908;2023-07-02T06:28:10;10.43;;;5.72;;
27670;SDS011;15077;49.704;9.908;2023-07-02T06:30:35;10.20;;;5.78;;
27670;SDS011;15077;49.704;9.908;2023-07-02T06:33:01;9.73;;;6.35;;
27670;SDS011;15077;49.704;9.908;2023-07-02T06:35:27;10.05;;;5.78;;
27670;SDS011;15077;49.704;9.908;2023-07-02T06:37:53;9.65;;;6.03;;
27670;SDS011;15077;49.704;9.908;2023-07-02T06:40:19;9.48;;;6.47;;
27670;SDS011;15077;49.704;9.908;2023-07-02T06:42:47;10.93;;;6.50;;
27670;SDS011;15077;49.704;9.908;2023-07-02T06:45:13;13.15;;;6.18;;
27670;SDS011;15077;49.704;9.908;2023-07-02T06:47:39;7.85;;;5.63;;
27670;SDS011;15077;49.704;9.908;2023-07-02T06:50:05;8.40;;;5.72;;
27670;SDS011;15077;49.704;9.908;2023-07-02T06:52:31;9.30;;;5.63;;
27670;SDS011;15077;49.704;9.908;2023-07-02T06:54:56;11.15;;;5.95;;
27670;SDS011;15077;49.704;9.908;2023-07-02T06:57:22;9.63;;;6.28;;
27670;SDS011;15077;49.704;9.908;2023-07-02T06:59:48;13.30;;;7.05;;
27670;SDS011;15077;49.704;9.908;2023-07-02T07:02:15;9.52;;;5.88;;
27670;SDS011;15077;49.704;9.908;2023-07-02T07:04:41;9.50;;;5.95;;
27670;SDS011;15077;49.704;9.908;2023-07-02T07:07:06;10.45;;;6.03;;
27670;SDS011;15077;49.704;9.908;2023-07-02T07:09:32;10.93;;;7.18;;
27670;SDS011;15077;49.704;9.908;2023-07-02T07:11:58;10.20;;;5.63;;
27670;SDS011;15077;49.704;9.908;2023-07-02T07:14:23;10.15;;;6.60;;
27670;SDS011;15077;49.704;9.908;2023-07-02T07:16:49;10.45;;;6.55;;
27670;SDS011;15077;49.704;9.908;2023-07-02T07:19:16;8.32;;;5.70;;
27670;SDS011;15077;49.704;9.908;2023-07-02T07:21:42;9.00;;;5.88;;
27670;SDS011;15077;49.704;9.908;2023-07-02T07:24:08;10.68;;;6.35;;
27670;SDS011;15077;49.704;9.908;2023-07-02T07:26:34;10.15;;;6.35;;
27670;SDS011;15077;49.704;9.908;2023-07-02T07:29:00;10.73;;;6.38;;
27670;SDS011;15077;49.704;9.908;2023-07-02T07:31:26;7.97;;;5.50;;
27670;SDS011;15077;49.704;9.908;2023-07-02T07:33:51;11.98;;;6.40;;
27670;SDS011;15077;49.704;9.908;2023-07-02T07:36:18;8.82;;;6.32;;
27670;SDS011;15077;49.704;9.908;2023-07-02T07:38:44;10.05;;;6.35;;
27670;SDS011;15077;49.704;9.908;2023-07-02T07:41:10;11.07;;;7.07;;
27670;SDS011;15077;49.704;9.908;2023-07-02T07:43:35;11.85;;;6.82;;
27670;SDS011;15077;49.704;9.908;2023-07-02T07:46:01;11.00;;;7.20;;
27670;SDS011;15077;49.704;9.908;2023-07-02T07:48:27;9.35;;;6.38;;
27670;SDS011;15077;49.704;9.908;2023-07-02T07:50:53;8.48;;;5.82;;
27670;SDS011;15077;49.704;9.908;2023-07-02T07:53:18;9.00;;;6.35;;
27670;SDS011;15077;49.704;9.908;2023-07-02T07:55:44;12.20;;;7.03;;
27670;SDS011;15077;49.704;9.908;2023-07-02T07:58:10;11.25;;;6.40;;
27670;SDS011;15077;49.704;9.908;2023-07-02T08:00:36;12.57;;;7.10;;
27670;SDS011;15077;49.704;9.908;2023-07-02T08:03:02;10.32;;;6.72;;
27670;SDS011;15077;49.704;9.908;2023-07-02T08:05:29;10.27;;;7.30;;
27670;SDS011;15077;49.704;9.908;2023-07-02T08:07:56;11.02;;;7.32;;
27670;SDS011;15077;49.704;9.908;2023-07-02T08:10:22;11.85;;;7.20;;
27670;SDS011;15077;49.704;9.908;2023-07-02T08:12:50;10.75;;;6.75;;
27670;SDS011;15077;49.704;9.908;2023-07-02T08:15:17;10.82;;;6.95;;
27670;SDS011;15077;49.704;9.908;2023-07-02T08:17:43;13.00;;;7.97;;
27670;SDS011;15077;49.704;9.908;2023-07-02T08:20:10;11.13;;;6.90;;
27670;SDS011;15077;49.704;9.908;2023-07-02T08:22:40;12.95;;;6.90;;
27670;SDS011;15077;49.704;9.908;2023-07-02T08:25:06;9.48;;;5.72;;
27670;SDS011;15077;49.704;9.908;2023-07-02T08:27:32;11.32;;;6.20;;
27670;SDS011;15077;49.704;9.908;2023-07-02T08:29:58;10.25;;;6.85;;
27670;SDS011;15077;49.704;9.908;2023-07-02T08:32:24;9.15;;;6.90;;
27670;SDS011;15077;49.704;9.908;2023-07-02T08:34:50;10.13;;;6.25;;
27670;SDS011;15077;49.704;9.908;2023-07-02T08:37:20;11.75;;;6.63;;
27670;SDS011;15077;49.704;9.908;2023-07-02T08:39:46;9.57;;;6.82;;
27670;SDS011;15077;49.704;9.908;2023-07-02T08:42:14;10.10;;;7.15;;
27670;SDS011;15077;49.704;9.908;2023-07-02T08:44:40;9.68;;;6.40;;
27670;SDS011;15077;49.704;9.908;2023-07-02T08:47:10;9.57;;;5.38;;
27670;SDS011;15077;49.704;9.908;2023-07-02T08:49:36;10.18;;;6.55;;
27670;SDS011;15077;49.704;9.908;2023-07-02T08:52:02;9.55;;;5.72;;
27670;SDS011;15077;49.704;9.908;2023-07-02T08:54:28;8.00;;;5.60;;
27670;SDS011;15077;49.704;9.908;2023-07-02T08:56:54;8.35;;;5.35;;
27670;SDS011;15077;49.704;9.908;2023-07-02T08:59:19;9.70;;;6.00;;
27670;SDS011;15077;49.704;9.908;2023-07-02T09:01:52;10.88;;;6.18;;
27670;SDS011;15077;49.704;9.908;2023-07-02T09:04:19;7.47;;;5.53;;
27670;SDS011;15077;49.704;9.908;2023-07-02T09:06:51;9.48;;;5.97;;
27670;SDS011;15077;49.704;9.908;2023-07-02T09:09:49;12.13;;;6.18;;
27670;SDS011;15077;49.704;9.908;2023-07-02T09:12:31;8.40;;;5.50;;
27670;SDS011;15077;49.704;9.908;2023-07-02T09:14:58;10.53;;;6.10;;
27670;SDS011;15077;49.704;9.908;2023-07-02T09:17:37;7.78;;;4.95;;
27670;SDS011;15077;49.704;9.908;2023-07-02T09:20:06;9.75;;;5.50;;
27670;SDS011;15077;49.704;9.908;2023-07-02T09:22:33;8.55;;;4.75;;
27670;SDS011;15077;49.704;9.908;2023-07-02T09:25:03;8.63;;;4.57;;
27670;SDS011;15077;49.704;9.908;2023-07-02T09:27:40;6.88;;;4.82;;
27670;SDS011;15077;49.704;9.908;2023-07-02T09:30:16;10.13;;;5.15;;
27670;SDS011;15077;49.704;9.908;2023-07-02T09:32:42;6.65;;;4.72;;
27670;SDS011;15077;49.704;9.908;2023-07-02T09:35:10;7.53;;;4.88;;
27670;SDS011;15077;49.704;9.908;2023-07-02T09:37:36;7.72;;;4.78;;
27670;SDS011;15077;49.704;9.908;2023-07-02T09:40:04;6.93;;;4.78;;
27670;SDS011;15077;49.704;9.908;2023-07-02T09:42:34;6.95;;;4.10;;
27670;SDS011;15077;49.704;9.908;2023-07-02T09:45:03;5.65;;;4.15;;
27670;SDS011;15077;49.704;9.908;2023-07-02T09:47:34;7.85;;;4.18;;
27670;SDS011;15077;49.704;9.908;2023-07-02T09:50:08;5.75;;;3.97;;
27670;SDS011;15077;49.704;9.908;2023-07-02T09:52:38;6.13;;;3.63;;
27670;SDS011;15077;49.704;9.908;2023-07-02T09:55:04;7.78;;;4.40;;
27670;SDS011;15077;49.704;9.908;2023-07-02T09:57:33;7.82;;;4.65;;
27670;SDS011;15077;49.704;9.908;2023-07-02T10:00:00;6.80;;;4.38;;
27670;SDS011;15077;49.704;9.908;2023-07-02T10:02:26;5.55;;;3.80;;
27670;SDS011;15077;49.704;9.908;2023-07-02T10:04:53;5.65;;;3.72;;
27670;SDS011;15077;49.704;9.908;2023-07-02T10:07:27;5.55;;;3.72;;
27670;SDS011;15077;49.704;9.908;2023-07-02T10:09:55;6.50;;;4.07;;
27670;SDS011;15077;49.704;9.908;2023-07-02T10:12:22;4.47;;;3.47;;
27670;SDS011;15077;49.704;9.908;2023-07-02T10:14:54;6.90;;;4.40;;
27670;SDS011;15077;49.704;9.908;2023-07-02T10:19:56;7.30;;;4.65;;
27670;SDS011;15077;49.704;9.908;2023-07-02T10:22:43;7.30;;;4.80;;
27670;SDS011;15077;49.704;9.908;2023-07-02T10:25:10;8.80;;;5.03;;
27670;SDS011;15077;49.704;9.908;2023-07-02T10:27:36;7.07;;;4.63;;
27670;SDS011;15077;49.704;9.908;2023-07-02T10:30:05;6.40;;;4.72;;
27670;SDS011;15077;49.704;9.908;2023-07-02T10:32:34;7.72;;;5.07;;
27670;SDS011;15077;49.704;9.908;2023-07-02T10:35:14;8.00;;;4.95;;
27670;SDS011;15077;49.704;9.908;2023-07-02T10:37:40;7.75;;;5.20;;
27670;SDS011;15077;49.704;9.908;2023-07-02T10:40:06;7.68;;;5.00;;
27670;SDS011;15077;49.704;9.908;2023-07-02T10:42:44;8.73;;;5.25;;
27670;SDS011;15077;49.704;9.908;2023-07-02T10:45:10;7.43;;;5.45;;
27670;SDS011;15077;49.704;9.908;2023-07-02T10:47:39;8.45;;;6.30;;
27670;SDS011;15077;49.704;9.908;2023-07-02T10:52:45;9.95;;;5.57;;
27670;SDS011;15077;49.704;9.908;2023-07-02T10:55:22;7.65;;;5.53;;
27670;SDS011;15077;49.704;9.908;2023-07-02T10:57:50;7.97;;;5.20;;
27670;SDS011;15077;49.704;9.908;2023-07-02T11:00:29;7.28;;;5.18;;
27670;SDS011;15077;49.704;9.908;2023-07-02T11:02:55;9.25;;;6.25;;
27670;SDS011;15077;49.704;9.908;2023-07-02T11:05:20;11.25;;;6.65;;
27670;SDS011;15077;49.704;9.908;2023-07-02T11:07:46;12.15;;;7.05;;
27670;SDS011;15077;49.704;9.908;2023-07-02T11:10:17;8.55;;;6.28;;
27670;SDS011;15077;49.704;9.908;2023-07-02T11:15:10;10.18;;;7.22;;
27670;SDS011;15077;49.704;9.908;2023-07-02T11:17:39;9.75;;;6.80;;
27670;SDS011;15077;49.704;9.908;2023-07-02T11:20:08;9.68;;;6.43;;
27670;SDS011;15077;49.704;9.908;2023-07-02T11:22:36;10.35;;;6.97;;
27670;SDS011;15077;49.704;9.908;2023-07-02T11:27:40;10.43;;;6.70;;
27670;SDS011;15077;49.704;9.908;2023-07-02T11:30:07;9.68;;;5.97;;
27670;SDS011;15077;49.704;9.908;2023-07-02T11:32:50;10.75;;;6.75;;
27670;SDS011;15077;49.704;9.908;2023-07-02T11:35:19;12.52;;;7.72;;
27670;SDS011;15077;49.704;9.908;2023-07-02T11:37:46;8.18;;;6.10;;
27670;SDS011;15077;49.704;9.908;2023-07-02T11:40:14;13.55;;;8.25;;
27670;SDS011;15077;49.704;9.908;2023-07-02T11:42:42;12.23;;;8.65;;
27670;SDS011;15077;49.704;9.908;2023-07-02T11:45:09;11.63;;;7.60;;
27670;SDS011;15077;49.704;9.908;2023-07-02T11:47:35;10.57;;;7.47;;
27670;SDS011;15077;49.704;9.908;2023-07-02T11:50:02;12.93;;;7.95;;
27670;SDS011;15077;49.704;9.908;2023-07-02T11:52:28;16.02;;;9.52;;
27670;SDS011;15077;49.704;9.908;2023-07-02T11:54:54;12.57;;;6.97;;
27670;SDS011;15077;49.704;9.908;2023-07-02T11:57:20;13.25;;;8.50;;
27670;SDS011;15077;49.704;9.908;2023-07-02T11:59:47;11.27;;;8.07;;
27670;SDS011;15077;49.704;9.908;2023-07-02T12:02:14;14.98;;;9.10;;
27670;SDS011;15077;49.704;9.908;2023-07-02T12:04:40;11.88;;;7.97;;
27670;SDS011;15077;49.704;9.908;2023-07-02T12:07:07;11.50;;;8.88;;
27670;SDS011;15077;49.704;9.908;2023-07-02T12:09:32;12.48;;;8.35;;
27670;SDS011;15077;49.704;9.908;2023-07-02T12:11:58;11.70;;;7.75;;
27670;SDS011;15077;49.704;9.908;2023-07-02T12:14:24;11.63;;;7.97;;
27670;SDS011;15077;49.704;9.908;2023-07-02T12:16:49;13.73;;;7.93;;
27670;SDS011;15077;49.704;9.908;2023-07-02T12:19:15;11.30;;;7.80;;
27670;SDS011;15077;49.704;9.908;2023-07-02T12:21:41;10.40;;;7.53;;
27670;SDS011;15077;49.704;9.908;2023-07-02T12:24:07;15.10;;;8.75;;
27670;SDS011;15077;49.704;9.908;2023-07-02T12:26:35;13.45;;;8.43;;
27670;SDS011;15077;49.704;9.908;2023-07-02T12:29:01;13.13;;;9.40;;
27670;SDS011;15077;49.704;9.908;2023-07-02T12:31:29;12.25;;;7.95;;
27670;SDS011;15077;49.704;9.908;2023-07-02T12:33:55;12.38;;;8.63;;
27670;SDS011;15077;49.704;9.908;2023-07-02T12:36:21;15.25;;;9.82;;
27670;SDS011;15077;49.704;9.908;2023-07-02T12:38:47;12.60;;;9.15;;
27670;SDS011;15077;49.704;9.908;2023-07-02T12:41:12;12.48;;;8.55;;
27670;SDS011;15077;49.704;9.908;2023-07-02T12:43:38;13.48;;;9.90;;
27670;SDS011;15077;49.704;9.908;2023-07-02T12:46:04;15.10;;;9.70;;
27670;SDS011;15077;49.704;9.908;2023-07-02T12:48:31;14.38;;;9.13;;
27670;SDS011;15077;49.704;9.908;2023-07-02T12:50:57;13.35;;;9.20;;
27670;SDS011;15077;49.704;9.908;2023-07-02T12:53:25;13.60;;;9.88;;
27670;SDS011;15077;49.704;9.908;2023-07-02T12:55:52;14.68;;;10.23;;
27670;SDS011;15077;49.704;9.908;2023-07-02T12:58:19;13.43;;;9.18;;
27670;SDS011;15077;49.704;9.908;2023-07-02T13:00:46;15.98;;;9.38;;
27670;SDS011;15077;49.704;9.908;2023-07-02T13:03:12;15.10;;;10.90;;
27670;SDS011;15077;49.704;9.908;2023-07-02T13:05:39;13.32;;;9.35;;
27670;SDS011;15077;49.704;9.908;2023-07-02T13:08:05;13.98;;;8.65;;
27670;SDS011;15077;49.704;9.908;2023-07-02T13:10:32;14.10;;;8.98;;
27670;SDS011;15077;49.704;9.908;2023-07-02T13:12:59;13.30;;;9.50;;
27670;SDS011;15077;49.704;9.908;2023-07-02T13:15:25;16.65;;;9.68;;
27670;SDS011;15077;49.704;9.908;2023-07-02T13:17:51;16.13;;;11.15;;
27670;SDS011;15077;49.704;9.908;2023-07-02T13:20:17;15.13;;;10.00;;
27670;SDS011;15077;49.704;9.908;2023-07-02T13:22:43;15.93;;;10.80;;
27670;SDS011;15077;49.704;9.908;2023-07-02T13:25:09;17.13;;;11.38;;
27670;SDS011;15077;49.704;9.908;2023-07-02T13:27:34;14.77;;;10.27;;
27670;SDS011;15077;49.704;9.908;2023-07-02T13:30:01;15.88;;;10.40;;
27670;SDS011;15077;49.704;9.908;2023-07-02T13:32:27;18.35;;;11.10;;
27670;SDS011;15077;49.704;9.908;2023-07-02T13:34:53;18.35;;;11.73;;
27670;SDS011;15077;49.704;9.908;2023-07-02T13:37:18;17.15;;;11.80;;
27670;SDS011;15077;49.704;9.908;2023-07-02T13:39:48;15.95;;;10.95;;
27670;SDS011;15077;49.704;9.908;2023-07-02T13:42:15;16.40;;;10.85;;
27670;SDS011;15077;49.704;9.908;2023-07-02T13:44:41;14.77;;;10.35;;
27670;SDS011;15077;49.704;9.908;2023-07-02T13:47:07;16.75;;;11.05;;
27670;SDS011;15077;49.704;9.908;2023-07-02T13:49:33;17.48;;;11.02;;
27670;SDS011;15077;49.704;9.908;2023-07-02T13:52:00;15.75;;;11.77;;
27670;SDS011;15077;49.704;9.908;2023-07-02T13:54:26;17.55;;;11.68;;
27670;SDS011;15077;49.704;9.908;2023-07-02T13:56:52;18.45;;;12.60;;
27670;SDS011;15077;49.704;9.908;2023-07-02T13:59:18;15.77;;;10.70;;
27670;SDS011;15077;49.704;9.908;2023-07-02T14:01:45;16.40;;;10.70;;
27670;SDS011;15077;49.704;9.908;2023-07-02T14:04:12;17.27;;;12.32;;
27670;SDS011;15077;49.704;9.908;2023-07-02T14:06:39;18.73;;;11.85;;
27670;SDS011;15077;49.704;9.908;2023-07-02T14:09:05;21.15;;;12.95;;
27670;SDS011;15077;49.704;9.908;2023-07-02T14:11:31;16.65;;;12.00;;
27670;SDS011;15077;49.704;9.908;2023-07-02T14:13:59;17.45;;;11.98;;
27670;SDS011;15077;49.704;9.908;2023-07-02T14:16:25;17.10;;;11.30;;
27670;SDS011;15077;49.704;9.908;2023-07-02T14:18:51;17.52;;;11.00;;
27670;SDS011;15077;49.704;9.908;2023-07-02T14:21:17;16.73;;;11.00;;
27670;SDS011;15077;49.704;9.908;2023-07-02T14:23:43;15.43;;;10.60;;
27670;SDS011;15077;49.704;9.908;2023-07-02T14:26:09;18.63;;;12.70;;
27670;SDS011;15077;49.704;9.908;2023-07-02T14:28:34;16.33;;;12.02;;
27670;SDS011;15077;49.704;9.908;2023-07-02T14:31:01;16.30;;;11.10;;
27670;SDS011;15077;49.704;9.908;2023-07-02T14:33:29;15.63;;;10.63;;
27670;SDS011;15077;49.704;9.908;2023-07-02T14:35:58;16.83;;;12.18;;
27670;SDS011;15077;49.704;9.908;2023-07-02T14:38:25;15.73;;;11.13;;
27670;SDS011;15077;49.704;9.908;2023-07-02T14:40:52;14.38;;;9.63;;
27670;SDS011;15077;49.704;9.908;2023-07-02T14:43:21;15.10;;;9.88;;
27670;SDS011;15077;49.704;9.908;2023-07-02T14:45:51;15.07;;;10.85;;
27670;SDS011;15077;49.704;9.908;2023-07-02T14:48:20;18.45;;;11.57;;
27670;SDS011;15077;49.704;9.908;2023-07-02T14:50:48;15.68;;;10.82;;
27670;SDS011;15077;49.704;9.908;2023-07-02T14:53:22;15.18;;;11.52;;
27670;SDS011;15077;49.704;9.908;2023-07-02T14:55:50;16.23;;;11.07;;
27670;SDS011;15077;49.704;9.908;2023-07-02T14:58:18;15.52;;;10.18;;
27670;SDS011;15077;49.704;9.908;2023-07-02T15:00:47;15.30;;;10.05;;